createdAt,value
2022-08-31T00:00:19.041Z,90.51
2022-08-31T00:03:04.373Z,90.32
2022-08-31T00:05:31.267Z,90.50
2022-08-31T00:07:58.106Z,91.01
2022-08-31T00:10:32.966Z,90.79
2022-08-31T00:13:05.072Z,90.23
2022-08-31T00:15:35.359Z,90.55
2022-08-31T00:18:02.668Z,90.36
2022-08-31T00:20:33.839Z,90.45
2022-08-31T00:23:05.922Z,90.47
2022-08-31T00:25:34.469Z,90.74
2022-08-31T00:28:02.209Z,91.00
2022-08-31T00:30:29.767Z,91.30
2022-08-31T00:32:58.355Z,91.53
2022-08-31T00:35:28.139Z,91.97
2022-08-31T00:37:55.538Z,92.26
2022-08-31T00:40:23.816Z,92.71
2022-08-31T00:42:50.930Z,93.04
2022-08-31T00:45:17.981Z,93.00
2022-08-31T00:47:44.772Z,93.06
2022-08-31T00:50:15.055Z,93.25
2022-08-31T00:52:48.401Z,93.26
2022-08-31T00:55:23.355Z,93.27
2022-08-31T00:57:55.815Z,93.35
2022-08-31T01:00:26.548Z,93.64
2022-08-31T01:02:55.086Z,93.94
2022-08-31T01:05:22.203Z,93.88
2022-08-31T01:07:50.430Z,93.84
2022-08-31T01:10:20.782Z,93.93
2022-08-31T01:12:50.800Z,93.77
2022-08-31T01:15:18.228Z,93.63
2022-08-31T01:17:48.352Z,93.37
2022-08-31T01:20:48.657Z,92.97
2022-08-31T01:23:25.013Z,92.60
2022-08-31T01:25:55.487Z,92.29
2022-08-31T01:28:22.874Z,92.27
2022-08-31T01:31:06.152Z,92.14
2022-08-31T01:33:35.148Z,91.82
2022-08-31T01:36:02.090Z,91.64
2022-08-31T01:39:04.749Z,91.88
2022-08-31T01:41:31.965Z,92.09
2022-08-31T01:44:00.597Z,92.63
2022-08-31T01:46:28.787Z,93.02
2022-08-31T01:48:55.664Z,93.56
2022-08-31T01:51:23.112Z,93.65
2022-08-31T01:53:52.692Z,93.74
2022-08-31T01:56:24.750Z,94.26
2022-08-31T01:58:51.747Z,94.51
2022-08-31T02:01:56.407Z,95.40
2022-08-31T02:04:27.148Z,95.39
2022-08-31T02:06:58.345Z,95.50
2022-08-31T02:09:25.354Z,95.25
2022-08-31T02:11:52.622Z,94.63
2022-08-31T02:14:20.742Z,94.43
2022-08-31T02:16:49.524Z,94.64
2022-08-31T02:19:16.757Z,94.17
2022-08-31T02:21:43.742Z,93.84
2022-08-31T02:24:12.462Z,94.09
2022-08-31T02:26:40.507Z,94.22
2022-08-31T02:29:08.065Z,94.63
2022-08-31T02:31:36.131Z,94.61
2022-08-31T02:34:03.207Z,95.04
2022-08-31T02:36:32.335Z,95.20
2022-08-31T02:39:04.062Z,95.96
2022-08-31T02:41:33.379Z,95.41
2022-08-31T02:44:00.137Z,95.21
2022-08-31T02:46:27.617Z,94.83
2022-08-31T02:49:15.042Z,95.83
2022-08-31T02:51:43.649Z,95.88
2022-08-31T02:54:12.495Z,96.42
2022-08-31T02:56:40.791Z,96.94
2022-08-31T02:59:08.531Z,95.89
2022-08-31T03:01:36.124Z,95.56
2022-08-31T03:04:03.669Z,95.62
2022-08-31T03:06:31.831Z,96.16
2022-08-31T03:09:00.308Z,96.81
2022-08-31T03:11:27.358Z,96.76
2022-08-31T03:13:58.450Z,96.59
2022-08-31T03:16:26.199Z,97.46
2022-08-31T03:18:53.261Z,97.41
2022-08-31T03:21:20.487Z,97.74
2022-08-31T03:23:47.358Z,97.65
2022-08-31T03:26:14.650Z,98.23
2022-08-31T03:28:41.713Z,99.17
2022-08-31T03:31:40.829Z,100.00
2022-08-31T03:34:07.906Z,100.00
2022-08-31T03:36:34.861Z,100.00
2022-08-31T03:39:02.162Z,100.00
2022-08-31T03:41:29.096Z,100.00
2022-08-31T03:43:56.903Z,100.00
2022-08-31T03:46:24.067Z,100.00
2022-08-31T03:48:51.236Z,100.00
2022-08-31T03:51:20.184Z,100.00
2022-08-31T03:53:47.259Z,100.00
2022-08-31T03:56:18.335Z,100.00
2022-08-31T03:58:46.271Z,100.00
2022-08-31T04:01:28.890Z,100.00
2022-08-31T04:04:14.454Z,100.00
2022-08-31T04:07:07.244Z,99.54
2022-08-31T04:09:54.297Z,97.88
2022-08-31T04:12:53.045Z,97.12
2022-08-31T04:15:38.492Z,95.68
2022-08-31T04:18:24.190Z,93.53
2022-08-31T04:20:50.975Z,90.66
2022-08-31T04:23:18.126Z,87.37
2022-08-31T04:25:51.341Z,84.07
2022-08-31T04:28:18.270Z,79.02
2022-08-31T04:30:45.413Z,76.86
2022-08-31T04:33:15.693Z,72.70
2022-08-31T04:35:43.775Z,69.63
2022-08-31T04:38:11.242Z,66.54
2022-08-31T04:40:42.306Z,63.69
2022-08-31T04:43:10.119Z,61.68
2022-08-31T04:45:41.419Z,59.39
2022-08-31T04:48:09.042Z,58.21
2022-08-31T04:50:42.316Z,55.93
2022-08-31T04:53:09.949Z,54.66
2022-08-31T04:55:41.722Z,53.32
2022-08-31T04:58:12.769Z,52.15
2022-08-31T05:01:18.430Z,49.90
2022-08-31T05:04:29.190Z,49.66
2022-08-31T05:07:14.519Z,48.66
2022-08-31T05:09:41.785Z,48.25
2022-08-31T05:12:08.718Z,47.01
2022-08-31T05:14:37.249Z,46.87
2022-08-31T05:17:41.300Z,46.68
2022-08-31T05:20:27.030Z,46.01
2022-08-31T05:22:53.901Z,45.39
2022-08-31T05:26:17.012Z,44.35
2022-08-31T05:28:43.882Z,43.54
2022-08-31T05:31:30.179Z,42.82
2022-08-31T05:34:00.897Z,42.11
2022-08-31T05:36:54.490Z,41.20
2022-08-31T05:39:21.716Z,40.77
2022-08-31T05:41:48.848Z,39.81
2022-08-31T05:44:17.181Z,39.94
2022-08-31T05:46:44.964Z,39.16
2022-08-31T05:49:39.064Z,37.94
2022-08-31T05:52:26.978Z,37.33
2022-08-31T05:54:54.515Z,38.07
2022-08-31T05:57:24.549Z,39.11
2022-08-31T05:59:53.022Z,41.13
2022-08-31T06:02:21.177Z,42.33
2022-08-31T06:04:48.548Z,42.69
2022-08-31T06:07:20.255Z,41.00
2022-08-31T06:09:53.723Z,39.85
2022-08-31T06:12:25.418Z,38.36
2022-08-31T06:15:11.043Z,37.52
2022-08-31T06:17:57.741Z,35.92
2022-08-31T06:20:26.073Z,35.61
2022-08-31T06:22:53.694Z,34.66
2022-08-31T06:26:01.273Z,34.60
2022-08-31T06:28:32.759Z,33.34
2022-08-31T06:31:02.228Z,33.27
2022-08-31T06:33:29.800Z,33.73
2022-08-31T06:36:15.592Z,34.57
2022-08-31T06:39:01.541Z,35.27
2022-08-31T06:41:48.585Z,36.24
2022-08-31T06:44:34.313Z,36.74
2022-08-31T06:47:33.749Z,37.20
2022-08-31T08:09:24.659Z,35.45
2022-08-31T08:12:10.679Z,33.64
2022-08-31T08:14:44.522Z,33.94
2022-08-31T08:17:48.414Z,33.17
2022-08-31T08:20:34.658Z,31.22
2022-08-31T08:23:26.718Z,29.58
2022-08-31T08:26:33.841Z,29.45
2022-08-31T08:29:25.306Z,27.88
2022-08-31T08:32:14.234Z,27.53
2022-08-31T08:34:44.753Z,26.25
2022-08-31T08:37:13.603Z,24.79
2022-08-31T08:40:01.807Z,23.89
2022-08-31T08:42:33.824Z,23.29
2022-08-31T08:45:20.346Z,23.85
2022-08-31T08:47:50.044Z,24.25
2022-08-31T08:50:19.348Z,24.04
2022-08-31T08:52:47.304Z,24.25
2022-08-31T08:55:18.530Z,23.55
2022-08-31T08:57:52.440Z,24.00
2022-08-31T09:00:38.749Z,23.96
2022-08-31T09:03:15.759Z,23.77
2022-08-31T09:06:54.695Z,24.78
2022-08-31T09:09:34.821Z,25.38
2022-08-31T09:12:30.959Z,26.67
2022-08-31T09:15:36.830Z,26.78
2022-08-31T09:18:26.464Z,26.42
2022-08-31T09:21:22.323Z,27.27
2022-08-31T09:24:08.273Z,27.30
2022-08-31T09:27:18.709Z,27.48
2022-08-31T09:29:56.585Z,27.77
2022-08-31T09:33:05.546Z,26.99
2022-08-31T09:35:56.699Z,28.00
2022-08-31T09:38:39.630Z,28.98
2022-08-31T09:41:33.653Z,29.04
2022-08-31T09:44:31.687Z,29.59
2022-08-31T09:47:02.897Z,29.24
2022-08-31T09:49:37.489Z,28.24
2022-08-31T09:52:49.330Z,28.23
2022-08-31T09:55:46.944Z,29.35
2022-08-31T09:58:14.631Z,30.40
2022-08-31T10:00:44.921Z,31.07
2022-08-31T10:03:19.093Z,30.06
2022-08-31T10:05:48.847Z,30.01
2022-08-31T10:08:19.492Z,29.85
2022-08-31T10:10:49.638Z,29.15
2022-08-31T10:13:22.120Z,28.82
2022-08-31T10:16:01.225Z,28.44
2022-08-31T10:18:39.632Z,29.04
2022-08-31T10:21:16.237Z,29.97
2022-08-31T10:24:15.179Z,30.31
2022-08-31T10:27:05.369Z,31.45
2022-08-31T10:30:01.181Z,32.24
2022-08-31T10:32:42.413Z,32.86
2022-08-31T10:36:10.811Z,33.46
2022-08-31T10:38:41.698Z,33.50
2022-08-31T10:41:42.366Z,33.29
2022-08-31T10:44:52.263Z,33.63
2022-08-31T10:47:33.074Z,30.44
2022-08-31T10:50:29.735Z,28.31
2022-08-31T10:53:45.992Z,26.89
2022-08-31T10:56:37.485Z,26.80
2022-08-31T10:59:30.845Z,26.80
2022-08-31T11:03:02.080Z,26.53
2022-08-31T11:05:51.384Z,25.80
2022-08-31T11:08:49.982Z,24.91
2022-08-31T11:12:05.034Z,25.10
2022-08-31T11:15:09.875Z,24.73
2022-08-31T11:18:14.759Z,24.39
2022-08-31T11:21:06.687Z,25.13
2022-08-31T11:24:20.606Z,25.09
2022-08-31T11:26:57.130Z,25.84
2022-08-31T11:30:04.994Z,25.64
2022-08-31T11:33:14.342Z,25.61
2022-08-31T11:36:08.871Z,24.30
2022-08-31T11:39:06.357Z,23.11
2022-08-31T11:41:47.723Z,22.13
2022-08-31T11:44:34.284Z,22.54
2022-08-31T11:47:06.917Z,23.18
2022-08-31T11:49:51.706Z,23.50
2022-08-31T11:52:38.597Z,23.86
2022-08-31T11:55:52.229Z,24.78
2022-08-31T11:58:23.573Z,25.74
2022-08-31T12:00:58.774Z,26.48
2022-08-31T12:04:11.548Z,25.55
2022-08-31T12:07:22.730Z,24.80
2022-08-31T12:10:14.122Z,25.33
2022-08-31T12:13:26.083Z,25.00
2022-08-31T12:16:18.025Z,26.24
2022-08-31T12:19:34.167Z,26.64
2022-08-31T12:22:31.424Z,27.76
2022-08-31T12:25:20.450Z,28.46
2022-08-31T12:28:10.893Z,29.00
2022-08-31T12:30:47.828Z,29.68
2022-08-31T12:33:27.779Z,30.62
2022-08-31T12:36:10.581Z,31.54
2022-08-31T12:39:10.678Z,32.16
2022-08-31T12:41:45.749Z,32.72
2022-08-31T12:44:23.463Z,33.09
2022-08-31T12:47:24.175Z,33.43
2022-08-31T12:50:10.319Z,33.06
2022-08-31T12:52:46.916Z,33.33
2022-08-31T12:55:51.113Z,33.32
2022-08-31T12:58:36.722Z,32.64
2022-08-31T13:01:10.600Z,32.21
2022-08-31T13:03:41.390Z,30.38
2022-08-31T13:06:15.774Z,30.39
2022-08-31T13:09:06.826Z,30.89
2022-08-31T13:11:53.658Z,30.36
2022-08-31T13:14:25.150Z,30.20
2022-08-31T13:17:15.453Z,29.47
2022-08-31T13:20:01.726Z,28.74
2022-08-31T13:22:39.614Z,27.25
2022-08-31T13:25:36.355Z,27.40
2022-08-31T13:28:38.312Z,27.56
2022-08-31T13:31:28.594Z,28.27
2022-08-31T13:34:01.938Z,28.89
2022-08-31T13:36:36.050Z,29.62
2022-08-31T13:39:31.661Z,30.19
2022-08-31T13:42:09.287Z,30.94
2022-08-31T13:44:40.460Z,31.93
2022-08-31T13:47:20.390Z,32.31
2022-08-31T13:49:49.952Z,33.10
2022-08-31T13:52:22.580Z,33.80
2022-08-31T13:55:06.123Z,34.62
2022-08-31T13:57:38.523Z,34.64
2022-08-31T14:00:33.329Z,34.79
2022-08-31T14:03:33.298Z,35.12
2022-08-31T14:06:23.882Z,35.27
2022-08-31T14:08:55.235Z,35.75
2022-08-31T14:11:22.483Z,35.98
2022-08-31T14:13:50.889Z,36.42
2022-08-31T14:16:32.575Z,35.97
2022-08-31T14:19:00.587Z,36.43
2022-08-31T14:21:31.120Z,35.63
2022-08-31T14:24:03.505Z,35.47
2022-08-31T14:26:34.063Z,35.38
2022-08-31T14:29:10.714Z,35.14
2022-08-31T14:31:49.287Z,34.52
2022-08-31T14:34:25.513Z,35.14
2022-08-31T14:37:02.592Z,34.62
2022-08-31T14:39:31.453Z,34.70
2022-08-31T14:42:14.549Z,34.30
2022-08-31T14:44:46.096Z,34.90
2022-08-31T14:47:13.217Z,35.20
2022-08-31T14:49:45.635Z,35.87
2022-08-31T14:52:13.230Z,36.38
2022-08-31T14:54:41.109Z,36.97
2022-08-31T14:57:12.421Z,37.26
2022-08-31T14:59:43.067Z,37.36
2022-08-31T15:02:12.990Z,38.10
2022-08-31T15:04:45.534Z,38.58
2022-08-31T15:07:14.559Z,39.02
2022-08-31T15:09:43.251Z,38.90
2022-08-31T15:12:14.935Z,38.97
2022-08-31T15:14:44.963Z,39.34
2022-08-31T15:17:19.814Z,39.82
2022-08-31T15:19:50.382Z,39.93
2022-08-31T15:22:18.305Z,39.99
2022-08-31T15:24:45.544Z,40.17
2022-08-31T15:27:15.462Z,39.95
2022-08-31T15:29:45.673Z,40.57
2022-08-31T15:32:16.918Z,41.08
2022-08-31T15:34:53.621Z,41.33
2022-08-31T15:37:21.568Z,40.87
2022-08-31T15:39:50.765Z,40.79
2022-08-31T15:42:22.953Z,41.00
2022-08-31T15:44:57.323Z,41.12
2022-08-31T15:47:45.535Z,41.55
2022-08-31T15:50:13.346Z,42.32
2022-08-31T15:52:51.705Z,42.66
2022-08-31T15:55:23.932Z,43.04
2022-08-31T15:57:54.578Z,43.23
2022-08-31T16:00:27.200Z,43.51
2022-08-31T16:02:57.453Z,43.69
2022-08-31T16:05:28.335Z,43.23
2022-08-31T16:07:55.696Z,42.58
2022-08-31T16:10:23.908Z,42.65
2022-08-31T16:12:52.218Z,42.97
2022-08-31T16:15:22.247Z,43.04
2022-08-31T16:17:51.685Z,42.79
2022-08-31T16:20:18.562Z,42.98
2022-08-31T16:22:45.671Z,43.23
2022-08-31T16:25:14.457Z,43.76
2022-08-31T16:27:43.574Z,44.04
2022-08-31T16:30:12.336Z,44.15
2022-08-31T16:32:39.543Z,45.03
2022-08-31T16:35:07.145Z,45.33
2022-08-31T16:37:35.529Z,45.79
2022-08-31T16:40:03.452Z,46.45
2022-08-31T16:42:30.460Z,47.01
2022-08-31T16:45:01.755Z,47.76
2022-08-31T16:47:29.556Z,48.35
2022-08-31T16:50:00.704Z,48.95
2022-08-31T16:52:29.252Z,49.54
2022-08-31T16:54:57.503Z,50.40
2022-08-31T16:57:27.626Z,50.84
2022-08-31T16:59:56.632Z,51.47
2022-08-31T17:02:24.469Z,52.21
2022-08-31T17:04:53.460Z,52.76
2022-08-31T17:07:24.811Z,53.57
2022-08-31T17:09:56.578Z,54.13
2022-08-31T17:12:26.144Z,54.65
2022-08-31T17:14:53.374Z,55.39
2022-08-31T17:17:22.975Z,55.85
2022-08-31T17:19:52.219Z,56.44
2022-08-31T17:22:26.937Z,56.98
2022-08-31T17:24:58.237Z,57.61
2022-08-31T17:27:26.479Z,57.97
2022-08-31T17:29:56.051Z,58.56
2022-08-31T17:32:25.199Z,58.96
2022-08-31T17:34:54.504Z,59.08
2022-08-31T17:37:36.566Z,59.49
2022-08-31T17:40:08.252Z,60.06
2022-08-31T17:42:35.674Z,60.33
2022-08-31T17:45:05.962Z,60.78
2022-08-31T17:47:33.188Z,61.24
2022-08-31T17:50:00.292Z,61.52
2022-08-31T17:52:27.779Z,62.08
2022-08-31T17:54:55.343Z,62.67
2022-08-31T17:57:25.348Z,63.03
2022-08-31T17:59:54.921Z,63.79
2022-08-31T18:02:32.506Z,64.67
2022-08-31T18:05:01.316Z,65.04
2022-08-31T18:07:29.141Z,65.54
2022-08-31T18:09:56.044Z,65.65
2022-08-31T18:12:25.703Z,66.19
2022-08-31T18:14:53.816Z,66.63
2022-08-31T18:17:24.251Z,66.94
2022-08-31T18:19:51.111Z,67.45
2022-08-31T18:22:19.849Z,67.80
2022-08-31T18:24:46.853Z,68.08
2022-08-31T18:27:17.283Z,68.36
2022-08-31T18:29:45.200Z,68.54
2022-08-31T18:32:12.790Z,68.89
2022-08-31T18:34:47.346Z,69.39
2022-08-31T18:37:16.289Z,69.85
2022-08-31T18:40:05.343Z,70.14
2022-08-31T18:42:51.965Z,70.58
2022-08-31T18:45:19.584Z,71.19
2022-08-31T18:48:23.703Z,71.80
2022-08-31T18:50:46.839Z,72.34
2022-08-31T18:53:29.575Z,72.69
2022-08-31T18:55:59.482Z,73.10
2022-08-31T18:58:26.447Z,73.26
2022-08-31T19:00:58.358Z,73.94
2022-08-31T19:03:27.498Z,74.07
2022-08-31T19:05:54.945Z,74.30
2022-08-31T19:08:23.094Z,74.54
2022-08-31T19:10:51.353Z,75.05
2022-08-31T19:13:18.388Z,75.44
2022-08-31T19:15:45.927Z,75.49
2022-08-31T19:18:13.249Z,75.69
2022-08-31T19:20:40.890Z,76.34
2022-08-31T19:23:08.275Z,76.72
2022-08-31T19:25:43.141Z,76.93
2022-08-31T19:28:10.144Z,77.20
2022-08-31T19:30:38.306Z,77.36
2022-08-31T19:33:11.495Z,77.87
2022-08-31T19:35:38.430Z,78.33
2022-08-31T19:38:05.848Z,78.45
2022-08-31T19:40:39.401Z,78.76
2022-08-31T19:45:54.677Z,79.45
2022-08-31T19:48:23.525Z,79.89
2022-08-31T19:50:52.130Z,80.22
2022-08-31T19:53:22.246Z,80.63
2022-08-31T19:55:51.601Z,81.06
2022-08-31T19:58:26.365Z,81.05
2022-08-31T20:01:00.681Z,81.28
2022-08-31T20:03:28.324Z,81.33
2022-08-31T20:05:56.994Z,81.11
2022-08-31T20:08:23.873Z,81.41
2022-08-31T20:10:54.739Z,81.19
2022-08-31T20:13:25.262Z,80.98
2022-08-31T20:15:53.002Z,80.93
2022-08-31T20:18:20.777Z,81.11
2022-08-31T20:20:50.440Z,81.21
2022-08-31T20:23:21.269Z,81.64
2022-08-31T20:25:51.150Z,81.85
2022-08-31T20:28:26.302Z,82.08
2022-08-31T20:30:55.333Z,82.09
2022-08-31T20:33:22.648Z,81.74
2022-08-31T20:35:49.404Z,82.01
2022-08-31T20:38:17.759Z,82.37
2022-08-31T20:40:47.444Z,82.33
2022-08-31T20:43:15.009Z,81.87
2022-08-31T20:45:42.509Z,82.24
2022-08-31T20:48:28.676Z,82.70
2022-08-31T20:50:56.522Z,82.23
2022-08-31T20:53:35.990Z,81.30
2022-08-31T20:56:16.906Z,81.09
2022-08-31T20:58:45.662Z,80.90
2022-08-31T21:01:14.205Z,80.89
2022-08-31T21:03:41.800Z,81.80
2022-08-31T21:06:12.193Z,82.19
2022-08-31T21:08:42.650Z,81.84
2022-08-31T21:11:17.853Z,82.19
2022-08-31T21:13:46.520Z,82.67
2022-08-31T21:16:15.172Z,83.23
2022-08-31T21:18:42.126Z,83.65
2022-08-31T21:21:13.081Z,84.41
2022-08-31T21:23:40.036Z,84.55
2022-08-31T21:26:09.888Z,84.57
2022-08-31T21:28:40.183Z,85.21
2022-08-31T21:31:15.748Z,85.43
2022-08-31T21:33:46.445Z,85.55
2022-08-31T21:36:15.260Z,85.07
2022-08-31T21:38:43.100Z,85.76
2022-08-31T21:41:12.341Z,86.10
2022-08-31T21:43:40.253Z,86.61
2022-08-31T21:46:11.993Z,86.50
2022-08-31T21:48:41.597Z,86.05
2022-08-31T21:51:14.422Z,86.67
2022-08-31T21:53:42.053Z,87.07
2022-08-31T21:56:09.478Z,87.15
2022-08-31T21:58:36.840Z,87.31
2022-08-31T22:01:04.738Z,87.83
2022-08-31T22:03:36.189Z,87.68
2022-08-31T22:06:07.635Z,88.23
2022-08-31T22:08:35.899Z,88.33
2022-08-31T22:11:08.201Z,88.35
2022-08-31T22:13:37.165Z,88.40
2022-08-31T22:16:14.098Z,88.01
2022-08-31T22:19:06.424Z,88.51
2022-08-31T22:21:35.291Z,88.36
2022-08-31T22:24:07.462Z,88.99
2022-08-31T22:26:44.413Z,88.79
2022-08-31T22:29:13.640Z,88.81
2022-08-31T22:31:41.440Z,88.73
2022-08-31T22:34:10.575Z,89.25
2022-08-31T22:36:38.129Z,90.68
2022-08-31T22:39:12.171Z,91.49
2022-08-31T22:41:42.233Z,91.35
2022-08-31T22:44:13.100Z,91.66
2022-08-31T22:46:40.337Z,91.70
2022-08-31T22:49:09.915Z,91.93
2022-08-31T22:51:39.383Z,91.78
2022-08-31T22:54:07.033Z,91.21
2022-08-31T22:56:36.642Z,91.50
2022-08-31T22:59:09.648Z,91.20
2022-08-31T23:01:41.924Z,91.09
2022-08-31T23:04:12.673Z,91.20
2022-08-31T23:06:39.787Z,91.28
2022-08-31T23:09:10.398Z,91.25
2022-08-31T23:11:38.276Z,91.00
2022-08-31T23:14:10.257Z,90.75
2022-08-31T23:16:38.691Z,90.66
2022-08-31T23:19:10.743Z,90.13
2022-08-31T23:21:43.090Z,90.11
2022-08-31T23:24:12.653Z,89.96
2022-08-31T23:26:40.767Z,90.10
2022-08-31T23:29:09.289Z,89.99
2022-08-31T23:31:37.914Z,90.15
2022-08-31T23:34:09.781Z,90.35
2022-08-31T23:36:36.560Z,90.29
2022-08-31T23:39:04.946Z,90.49
2022-08-31T23:41:34.830Z,90.54
2022-08-31T23:44:09.239Z,90.80
2022-08-31T23:46:38.107Z,90.72
2022-08-31T23:49:08.733Z,91.08
2022-08-31T23:51:35.865Z,91.49
2022-08-31T23:54:07.061Z,91.46
2022-08-31T23:56:37.398Z,91.59
2022-08-31T23:59:09.644Z,91.65
